sensor_id;sensor_type;location;lat;lon;timestamp;pressure;altitude;pressure_sealevel;temperature;humidity
70468;BME280;57934;51.532;7.684;2023-05-07T00:00:28;100382.63;;;13.04;100.00
70468;BME280;57934;51.532;7.684;2023-05-07T00:02:54;100385.69;;;13.08;100.00
70468;BME280;57934;51.532;7.684;2023-05-07T00:05:20;100392.59;;;13.09;100.00
70468;BME280;57934;51.532;7.684;2023-05-07T00:07:46;100393.22;;;13.11;100.00
70468;BME280;57934;51.532;7.684;2023-05-07T00:10:12;100398.28;;;13.19;100.00
70468;BME280;57934;51.532;7.684;2023-05-07T00:12:38;100395.06;;;13.24;100.00
70468;BME280;57934;51.532;7.684;2023-05-07T00:15:05;100395.06;;;13.24;100.00
70468;BME280;57934;51.532;7.684;2023-05-07T00:17:32;100394.81;;;13.32;100.00
70468;BME280;57934;51.532;7.684;2023-05-07T00:19:59;100394.59;;;13.33;100.00
70468;BME280;57934;51.532;7.684;2023-05-07T00:22:24;100401.13;;;13.38;100.00
70468;BME280;57934;51.532;7.684;2023-05-07T00:24:50;100401.94;;;13.38;100.00
70468;BME280;57934;51.532;7.684;2023-05-07T00:27:16;100396.41;;;13.46;100.00
70468;BME280;57934;51.532;7.684;2023-05-07T00:29:43;100399.06;;;13.46;100.00
70468;BME280;57934;51.532;7.684;2023-05-07T00:32:08;100404.34;;;13.46;100.00
70468;BME280;57934;51.532;7.684;2023-05-07T00:34:34;100408.03;;;13.45;100.00
70468;BME280;57934;51.532;7.684;2023-05-07T00:37:01;100402.09;;;13.50;100.00
70468;BME280;57934;51.532;7.684;2023-05-07T00:39:27;100396.19;;;13.48;100.00
70468;BME280;57934;51.532;7.684;2023-05-07T00:41:53;100404.75;;;13.43;100.00
70468;BME280;57934;51.532;7.684;2023-05-07T00:44:19;100400.69;;;13.41;100.00
70468;BME280;57934;51.532;7.684;2023-05-07T00:46:45;100395.63;;;13.39;100.00
70468;BME280;57934;51.532;7.684;2023-05-07T00:49:14;100393.13;;;13.44;100.00
70468;BME280;57934;51.532;7.684;2023-05-07T00:51:40;100399.84;;;13.47;100.00
70468;BME280;57934;51.532;7.684;2023-05-07T00:54:07;100392.53;;;13.49;100.00
70468;BME280;57934;51.532;7.684;2023-05-07T00:56:34;100393.13;;;13.51;100.00
70468;BME280;57934;51.532;7.684;2023-05-07T00:59:01;100395.34;;;13.54;100.00
70468;BME280;57934;51.532;7.684;2023-05-07T01:01:28;100390.28;;;13.52;100.00
70468;BME280;57934;51.532;7.684;2023-05-07T01:03:54;100390.06;;;13.54;100.00
70468;BME280;57934;51.532;7.684;2023-05-07T01:06:22;100393.72;;;13.59;100.00
70468;BME280;57934;51.532;7.684;2023-05-07T01:08:49;100392.09;;;13.58;100.00
70468;BME280;57934;51.532;7.684;2023-05-07T01:11:16;100399.59;;;13.61;100.00
70468;BME280;57934;51.532;7.684;2023-05-07T01:13:43;100383.28;;;13.65;100.00
70468;BME280;57934;51.532;7.684;2023-05-07T01:16:10;100389.63;;;13.57;100.00
70468;BME280;57934;51.532;7.684;2023-05-07T01:18:36;100383.13;;;13.53;100.00
70468;BME280;57934;51.532;7.684;2023-05-07T01:21:04;100378.88;;;13.45;100.00
70468;BME280;57934;51.532;7.684;2023-05-07T01:23:30;100379.47;;;13.47;100.00
70468;BME280;57934;51.532;7.684;2023-05-07T01:25:56;100378.50;;;13.42;100.00
70468;BME280;57934;51.532;7.684;2023-05-07T01:28:25;100383.78;;;13.42;100.00
70468;BME280;57934;51.532;7.684;2023-05-07T01:30:55;100377.84;;;13.46;100.00
70468;BME280;57934;51.532;7.684;2023-05-07T01:33:24;100367.09;;;13.41;100.00
70468;BME280;57934;51.532;7.684;2023-05-07T01:35:53;100372.63;;;13.26;100.00
70468;BME280;57934;51.532;7.684;2023-05-07T01:38:21;100370.19;;;13.18;100.00
70468;BME280;57934;51.532;7.684;2023-05-07T01:40:48;100375.06;;;13.14;100.00
70468;BME280;57934;51.532;7.684;2023-05-07T01:43:14;100373.06;;;13.10;100.00
70468;BME280;57934;51.532;7.684;2023-05-07T01:45:41;100369.00;;;13.07;100.00
70468;BME280;57934;51.532;7.684;2023-05-07T01:48:11;100370.00;;;13.13;100.00
70468;BME280;57934;51.532;7.684;2023-05-07T01:50:37;100367.53;;;13.11;100.00
70468;BME280;57934;51.532;7.684;2023-05-07T01:53:03;100373.88;;;13.10;100.00
70468;BME280;57934;51.532;7.684;2023-05-07T01:55:29;100371.41;;;13.16;100.00
70468;BME280;57934;51.532;7.684;2023-05-07T01:57:55;100378.13;;;13.18;100.00
70468;BME280;57934;51.532;7.684;2023-05-07T02:00:22;100376.53;;;13.24;100.00
70468;BME280;57934;51.532;7.684;2023-05-07T02:02:48;100379.56;;;13.27;100.00
70468;BME280;57934;51.532;7.684;2023-05-07T02:05:26;100377.50;;;13.29;100.00
70468;BME280;57934;51.532;7.684;2023-05-07T02:08:00;100374.84;;;13.23;100.00
70468;BME280;57934;51.532;7.684;2023-05-07T02:10:27;100381.81;;;13.30;100.00
70468;BME280;57934;51.532;7.684;2023-05-07T02:12:54;100379.56;;;13.27;100.00
70468;BME280;57934;51.532;7.684;2023-05-07T02:15:20;100385.28;;;13.24;100.00
70468;BME280;57934;51.532;7.684;2023-05-07T02:17:59;100387.28;;;13.22;100.00
70468;BME280;57934;51.532;7.684;2023-05-07T02:20:26;100382.59;;;13.18;100.00
70468;BME280;57934;51.532;7.684;2023-05-07T02:22:53;100379.97;;;13.18;100.00
70468;BME280;57934;51.532;7.684;2023-05-07T02:25:19;100376.28;;;13.19;100.00
70468;BME280;57934;51.532;7.684;2023-05-07T02:27:45;100383.25;;;13.13;100.00
70468;BME280;57934;51.532;7.684;2023-05-07T02:30:13;100370.00;;;13.13;100.00
70468;BME280;57934;51.532;7.684;2023-05-07T02:32:39;100375.72;;;13.03;100.00
70468;BME280;57934;51.532;7.684;2023-05-07T02:35:06;100373.47;;;13.00;100.00
70468;BME280;57934;51.532;7.684;2023-05-07T02:37:32;100380.00;;;12.98;100.00
70468;BME280;57934;51.532;7.684;2023-05-07T02:39:58;100382.25;;;12.94;100.00
70468;BME280;57934;51.532;7.684;2023-05-07T02:42:24;100384.88;;;12.94;100.00
70468;BME280;57934;51.532;7.684;2023-05-07T02:44:50;100380.84;;;12.85;100.00
70468;BME280;57934;51.532;7.684;2023-05-07T02:47:16;100388.56;;;12.93;100.00
70468;BME280;57934;51.532;7.684;2023-05-07T02:49:43;100380.84;;;12.85;100.00
70468;BME280;57934;51.532;7.684;2023-05-07T02:52:09;100379.59;;;12.81;100.00
70468;BME280;57934;51.532;7.684;2023-05-07T02:54:35;100369.25;;;12.73;100.00
70468;BME280;57934;51.532;7.684;2023-05-07T02:57:01;100368.84;;;12.76;100.00
70468;BME280;57934;51.532;7.684;2023-05-07T02:59:28;100374.34;;;12.74;100.00
70468;BME280;57934;51.532;7.684;2023-05-07T03:01:55;100367.00;;;12.70;100.00
70468;BME280;57934;51.532;7.684;2023-05-07T03:04:21;100367.41;;;12.66;100.00
70468;BME280;57934;51.532;7.684;2023-05-07T03:06:47;100369.47;;;12.64;100.00
70468;BME280;57934;51.532;7.684;2023-05-07T03:09:13;100373.09;;;12.63;100.00
70468;BME280;57934;51.532;7.684;2023-05-07T03:11:39;100362.53;;;12.63;100.00
70468;BME280;57934;51.532;7.684;2023-05-07T03:14:06;100371.50;;;12.69;100.00
70468;BME280;57934;51.532;7.684;2023-05-07T03:16:31;100369.66;;;12.63;100.00
70468;BME280;57934;51.532;7.684;2023-05-07T03:18:57;100369.25;;;12.59;100.00
70468;BME280;57934;51.532;7.684;2023-05-07T03:21:24;100364.56;;;12.55;100.00
70468;BME280;57934;51.532;7.684;2023-05-07T03:23:51;100365.19;;;12.50;100.00
70468;BME280;57934;51.532;7.684;2023-05-07T03:26:17;100372.69;;;12.60;100.00
70468;BME280;57934;51.532;7.684;2023-05-07T03:28:44;100374.94;;;12.56;100.00
70468;BME280;57934;51.532;7.684;2023-05-07T03:31:13;100379.03;;;12.59;100.00
70468;BME280;57934;51.532;7.684;2023-05-07T03:33:50;100382.06;;;12.62;100.00
70468;BME280;57934;51.532;7.684;2023-05-07T03:36:16;100371.09;;;12.72;100.00
70468;BME280;57934;51.532;7.684;2023-05-07T03:38:42;100369.88;;;12.55;100.00
70468;BME280;57934;51.532;7.684;2023-05-07T03:41:08;100368.03;;;12.55;100.00
70468;BME280;57934;51.532;7.684;2023-05-07T03:43:35;100374.34;;;12.68;100.00
70468;BME280;57934;51.532;7.684;2023-05-07T03:46:05;100385.34;;;12.64;100.00
70468;BME280;57934;51.532;7.684;2023-05-07T03:48:31;100382.06;;;12.62;100.00
70468;BME280;57934;51.532;7.684;2023-05-07T03:50:59;100385.13;;;12.59;100.00
70468;BME280;57934;51.532;7.684;2023-05-07T03:53:28;100385.34;;;12.64;100.00
70468;BME280;57934;51.532;7.684;2023-05-07T03:55:54;100395.69;;;12.66;100.00
70468;BME280;57934;51.532;7.684;2023-05-07T03:58:20;100387.38;;;12.62;100.00
70468;BME280;57934;51.532;7.684;2023-05-07T04:00:46;100387.16;;;12.57;100.00
70468;BME280;57934;51.532;7.684;2023-05-07T04:03:25;100398.34;;;12.59;100.00
70468;BME280;57934;51.532;7.684;2023-05-07T04:05:52;100403.22;;;12.69;100.00
70468;BME280;57934;51.532;7.684;2023-05-07T04:08:18;100404.84;;;12.63;100.00
70468;BME280;57934;51.532;7.684;2023-05-07T04:10:47;100401.63;;;12.61;100.00
70468;BME280;57934;51.532;7.684;2023-05-07T04:13:13;100399.78;;;12.55;100.00
70468;BME280;57934;51.532;7.684;2023-05-07T04:15:39;100399.78;;;12.55;100.00
70468;BME280;57934;51.532;7.684;2023-05-07T04:18:10;100388.16;;;12.56;100.00
70468;BME280;57934;51.532;7.684;2023-05-07T04:20:37;100408.34;;;12.57;100.00
70468;BME280;57934;51.532;7.684;2023-05-07T04:23:07;100403.63;;;12.66;100.00
70468;BME280;57934;51.532;7.684;2023-05-07T04:25:33;100406.09;;;12.61;100.00
70468;BME280;57934;51.532;7.684;2023-05-07T04:28:07;100406.50;;;12.64;100.00
70468;BME280;57934;51.532;7.684;2023-05-07T04:30:33;100406.69;;;12.70;100.00
70468;BME280;57934;51.532;7.684;2023-05-07T04:32:59;100404.84;;;12.77;100.00
70468;BME280;57934;51.532;7.684;2023-05-07T04:35:27;100404.84;;;12.70;100.00
70468;BME280;57934;51.532;7.684;2023-05-07T04:37:54;100395.53;;;12.74;100.00
70468;BME280;57934;51.532;7.684;2023-05-07T04:40:20;100401.81;;;12.80;100.00
70468;BME280;57934;51.532;7.684;2023-05-07T04:42:46;100402.63;;;12.80;100.00
70468;BME280;57934;51.532;7.684;2023-05-07T04:45:12;100398.75;;;12.89;100.00
70468;BME280;57934;51.532;7.684;2023-05-07T04:47:40;100397.53;;;12.92;100.00
70468;BME280;57934;51.532;7.684;2023-05-07T04:50:07;100401.00;;;12.86;100.00
70468;BME280;57934;51.532;7.684;2023-05-07T04:52:34;100407.91;;;12.94;100.00
70468;BME280;57934;51.532;7.684;2023-05-07T04:55:00;100406.47;;;12.91;100.00
70468;BME280;57934;51.532;7.684;2023-05-07T04:57:30;100414.81;;;13.01;100.00
70468;BME280;57934;51.532;7.684;2023-05-07T04:59:57;100410.94;;;13.04;100.00
70468;BME280;57934;51.532;7.684;2023-05-07T05:02:22;100418.47;;;13.00;100.00
70468;BME280;57934;51.532;7.684;2023-05-07T05:04:48;100421.94;;;13.07;100.00
70468;BME280;57934;51.532;7.684;2023-05-07T05:07:14;100421.72;;;13.16;100.00
70468;BME280;57934;51.532;7.684;2023-05-07T05:09:41;100418.66;;;13.19;100.00
70468;BME280;57934;51.532;7.684;2023-05-07T05:12:07;100416.81;;;13.19;100.00
70468;BME280;57934;51.532;7.684;2023-05-07T05:14:35;100416.00;;;13.19;100.00
70468;BME280;57934;51.532;7.684;2023-05-07T05:17:01;100418.25;;;13.28;100.00
70468;BME280;57934;51.532;7.684;2023-05-07T05:19:27;100415.78;;;13.40;100.00
70468;BME280;57934;51.532;7.684;2023-05-07T05:21:53;100413.81;;;13.74;100.00
70468;BME280;57934;51.532;7.684;2023-05-07T05:24:19;100415.84;;;13.78;100.00
70468;BME280;57934;51.532;7.684;2023-05-07T05:26:45;100419.25;;;13.92;100.00
70468;BME280;57934;51.532;7.684;2023-05-07T05:29:11;100419.34;;;14.11;100.00
70468;BME280;57934;51.532;7.684;2023-05-07T05:31:40;100419.56;;;14.09;100.00
70468;BME280;57934;51.532;7.684;2023-05-07T05:34:08;100428.31;;;14.09;100.00
70468;BME280;57934;51.532;7.684;2023-05-07T05:36:34;100423.53;;;14.25;100.00
70468;BME280;57934;51.532;7.684;2023-05-07T05:39:01;100428.75;;;14.38;100.00
70468;BME280;57934;51.532;7.684;2023-05-07T05:41:27;100427.66;;;14.52;100.00
70468;BME280;57934;51.532;7.684;2023-05-07T05:43:54;100429.94;;;14.42;100.00
70468;BME280;57934;51.532;7.684;2023-05-07T05:46:20;100431.63;;;14.37;100.00
70468;BME280;57934;51.532;7.684;2023-05-07T05:48:47;100425.41;;;14.49;100.00
70468;BME280;57934;51.532;7.684;2023-05-07T05:51:13;100425.16;;;14.64;100.00
70468;BME280;57934;51.532;7.684;2023-05-07T05:53:39;100429.00;;;14.68;100.00
70468;BME280;57934;51.532;7.684;2023-05-07T05:56:06;100427.75;;;14.71;100.00
70468;BME280;57934;51.532;7.684;2023-05-07T05:58:33;100429.78;;;14.69;100.00
70468;BME280;57934;51.532;7.684;2023-05-07T06:01:03;100423.13;;;14.60;100.00
70468;BME280;57934;51.532;7.684;2023-05-07T06:03:31;100433.50;;;14.68;100.00
70468;BME280;57934;51.532;7.684;2023-05-07T06:06:00;100435.81;;;14.83;100.00
70468;BME280;57934;51.532;7.684;2023-05-07T06:08:29;100436.13;;;14.93;99.78
70468;BME280;57934;51.532;7.684;2023-05-07T06:10:56;100438.25;;;14.84;100.00
70468;BME280;57934;51.532;7.684;2023-05-07T06:13:22;100433.41;;;14.99;98.99
70468;BME280;57934;51.532;7.684;2023-05-07T06:15:50;100445.72;;;14.94;99.65
70468;BME280;57934;51.532;7.684;2023-05-07T06:18:16;100440.41;;;14.69;99.78
70468;BME280;57934;51.532;7.684;2023-05-07T06:20:42;100451.38;;;14.79;100.00
70468;BME280;57934;51.532;7.684;2023-05-07T06:23:14;100451.25;;;14.67;100.00
70468;BME280;57934;51.532;7.684;2023-05-07T06:25:40;100459.00;;;14.94;100.00
70468;BME280;57934;51.532;7.684;2023-05-07T06:28:06;100458.53;;;15.22;99.95
70468;BME280;57934;51.532;7.684;2023-05-07T06:30:36;100457.22;;;15.31;96.97
70468;BME280;57934;51.532;7.684;2023-05-07T06:33:03;100461.56;;;15.25;96.99
70468;BME280;57934;51.532;7.684;2023-05-07T06:35:29;100462.41;;;15.44;95.99
70468;BME280;57934;51.532;7.684;2023-05-07T06:37:55;100466.19;;;15.55;96.20
70468;BME280;57934;51.532;7.684;2023-05-07T06:40:24;100463.47;;;15.80;95.10
70468;BME280;57934;51.532;7.684;2023-05-07T06:42:50;100461.22;;;15.95;93.54
70468;BME280;57934;51.532;7.684;2023-05-07T06:45:29;100470.59;;;16.28;92.69
70468;BME280;57934;51.532;7.684;2023-05-07T06:47:57;100468.63;;;16.23;91.75
70468;BME280;57934;51.532;7.684;2023-05-07T06:50:24;100465.94;;;16.12;91.03
70468;BME280;57934;51.532;7.684;2023-05-07T06:52:53;100475.59;;;16.06;91.68
70468;BME280;57934;51.532;7.684;2023-05-07T06:55:19;100468.28;;;16.32;90.06
70468;BME280;57934;51.532;7.684;2023-05-07T06:57:45;100471.84;;;15.95;91.78
70468;BME280;57934;51.532;7.684;2023-05-07T07:00:12;100473.25;;;15.98;92.05
70468;BME280;57934;51.532;7.684;2023-05-07T07:02:53;100480.34;;;16.04;92.61
70468;BME280;57934;51.532;7.684;2023-05-07T07:05:22;100477.56;;;16.29;91.27
70468;BME280;57934;51.532;7.684;2023-05-07T07:07:48;100478.28;;;16.36;90.74
70468;BME280;57934;51.532;7.684;2023-05-07T07:10:24;100472.19;;;15.87;92.87
70468;BME280;57934;51.532;7.684;2023-05-07T07:12:51;100484.88;;;15.85;93.05
70468;BME280;57934;51.532;7.684;2023-05-07T07:15:19;100477.19;;;15.77;93.35
70468;BME280;57934;51.532;7.684;2023-05-07T07:17:48;100479.13;;;15.70;93.71
70468;BME280;57934;51.532;7.684;2023-05-07T07:20:14;100470.84;;;15.78;94.39
70468;BME280;57934;51.532;7.684;2023-05-07T07:22:41;100469.13;;;16.02;92.74
70468;BME280;57934;51.532;7.684;2023-05-07T07:25:08;100470.97;;;16.02;93.27
70468;BME280;57934;51.532;7.684;2023-05-07T07:27:36;100474.94;;;16.11;92.77
70468;BME280;57934;51.532;7.684;2023-05-07T07:30:02;100472.59;;;16.33;91.17
70468;BME280;57934;51.532;7.684;2023-05-07T07:32:30;100482.38;;;16.51;90.75
70468;BME280;57934;51.532;7.684;2023-05-07T07:34:58;100472.81;;;16.31;92.03
70468;BME280;57934;51.532;7.684;2023-05-07T07:37:25;100476.84;;;16.22;90.90
70468;BME280;57934;51.532;7.684;2023-05-07T07:39:51;100478.06;;;16.50;90.67
70468;BME280;57934;51.532;7.684;2023-05-07T07:42:19;100481.56;;;16.50;89.71
70468;BME280;57934;51.532;7.684;2023-05-07T07:44:45;100476.69;;;17.12;88.87
70468;BME280;57934;51.532;7.684;2023-05-07T07:47:13;100481.91;;;17.07;88.65
70468;BME280;57934;51.532;7.684;2023-05-07T07:49:39;100483.31;;;17.22;87.21
70468;BME280;57934;51.532;7.684;2023-05-07T07:52:08;100475.88;;;17.00;87.02
70468;BME280;57934;51.532;7.684;2023-05-07T07:54:36;100485.38;;;17.08;86.05
70468;BME280;57934;51.532;7.684;2023-05-07T07:57:03;100486.31;;;17.25;86.74
70468;BME280;57934;51.532;7.684;2023-05-07T07:59:31;100480.66;;;17.10;86.24
70468;BME280;57934;51.532;7.684;2023-05-07T08:01:57;100493.72;;;17.00;86.06
70468;BME280;57934;51.532;7.684;2023-05-07T08:04:26;100478.66;;;17.40;85.61
70468;BME280;57934;51.532;7.684;2023-05-07T08:06:53;100478.75;;;17.81;83.19
70468;BME280;57934;51.532;7.684;2023-05-07T08:09:21;100487.78;;;18.20;81.37
70468;BME280;57934;51.532;7.684;2023-05-07T08:11:48;100491.16;;;18.16;80.90
70468;BME280;57934;51.532;7.684;2023-05-07T08:14:14;100489.59;;;19.49;76.67
70468;BME280;57934;51.532;7.684;2023-05-07T08:16:42;100490.75;;;19.37;76.56
70468;BME280;57934;51.532;7.684;2023-05-07T08:19:09;100490.69;;;20.14;74.17
70468;BME280;57934;51.532;7.684;2023-05-07T08:21:39;100481.63;;;21.07;70.09
70468;BME280;57934;51.532;7.684;2023-05-07T08:24:06;100474.16;;;22.60;64.85
70468;BME280;57934;51.532;7.684;2023-05-07T08:26:32;100481.69;;;21.64;66.53
70468;BME280;57934;51.532;7.684;2023-05-07T08:28:58;100486.19;;;20.20;69.45
70468;BME280;57934;51.532;7.684;2023-05-07T08:31:24;100494.16;;;19.49;73.70
70468;BME280;57934;51.532;7.684;2023-05-07T08:33:50;100494.22;;;18.98;75.85
70468;BME280;57934;51.532;7.684;2023-05-07T08:36:16;100495.06;;;18.53;78.15
70468;BME280;57934;51.532;7.684;2023-05-07T08:38:44;100499.63;;;18.41;78.89
70468;BME280;57934;51.532;7.684;2023-05-07T08:41:12;100495.75;;;18.94;78.03
70468;BME280;57934;51.532;7.684;2023-05-07T08:43:41;100495.03;;;18.36;79.32
70468;BME280;57934;51.532;7.684;2023-05-07T08:46:09;100505.84;;;19.26;76.35
70468;BME280;57934;51.532;7.684;2023-05-07T08:48:39;100505.25;;;19.41;75.50
70468;BME280;57934;51.532;7.684;2023-05-07T08:51:13;100508.88;;;19.68;75.04
70468;BME280;57934;51.532;7.684;2023-05-07T08:53:41;100496.38;;;19.35;76.27
70468;BME280;57934;51.532;7.684;2023-05-07T08:56:11;100504.47;;;20.01;75.23
70468;BME280;57934;51.532;7.684;2023-05-07T08:58:37;100497.66;;;20.15;72.86
70468;BME280;57934;51.532;7.684;2023-05-07T09:01:08;100501.72;;;21.09;69.95
70468;BME280;57934;51.532;7.684;2023-05-07T09:03:39;100496.09;;;22.06;66.61
70468;BME280;57934;51.532;7.684;2023-05-07T09:06:06;100498.34;;;22.29;64.96
70468;BME280;57934;51.532;7.684;2023-05-07T09:08:33;100510.78;;;20.66;68.27
70468;BME280;57934;51.532;7.684;2023-05-07T09:11:02;100505.06;;;21.64;68.21
70468;BME280;57934;51.532;7.684;2023-05-07T09:13:29;100502.91;;;22.44;64.50
70468;BME280;57934;51.532;7.684;2023-05-07T09:15:56;100498.13;;;22.92;61.91
70468;BME280;57934;51.532;7.684;2023-05-07T09:18:26;100501.81;;;23.42;61.26
70468;BME280;57934;51.532;7.684;2023-05-07T09:20:52;100489.06;;;24.28;57.60
70468;BME280;57934;51.532;7.684;2023-05-07T09:23:20;100494.88;;;23.16;60.56
70468;BME280;57934;51.532;7.684;2023-05-07T09:25:46;100490.72;;;22.11;62.69
70468;BME280;57934;51.532;7.684;2023-05-07T09:28:22;100492.19;;;23.16;62.51
70468;BME280;57934;51.532;7.684;2023-05-07T09:30:48;100496.47;;;24.51;57.61
70468;BME280;57934;51.532;7.684;2023-05-07T09:33:15;100491.72;;;23.89;58.80
70468;BME280;57934;51.532;7.684;2023-05-07T09:35:45;100498.09;;;24.52;57.76
70468;BME280;57934;51.532;7.684;2023-05-07T09:38:18;100502.16;;;24.00;56.68
70468;BME280;57934;51.532;7.684;2023-05-07T09:40:46;100493.81;;;22.60;60.85
70468;BME280;57934;51.532;7.684;2023-05-07T09:43:14;100504.47;;;21.14;65.14
70468;BME280;57934;51.532;7.684;2023-05-07T09:45:53;100508.47;;;21.12;66.97
70468;BME280;57934;51.532;7.684;2023-05-07T09:48:25;100504.06;;;20.36;70.06
70468;BME280;57934;51.532;7.684;2023-05-07T09:50:55;100504.44;;;20.77;68.96
70468;BME280;57934;51.532;7.684;2023-05-07T09:53:26;100506.03;;;20.73;69.61
70468;BME280;57934;51.532;7.684;2023-05-07T09:55:56;100501.94;;;20.65;68.45
70468;BME280;57934;51.532;7.684;2023-05-07T09:58:22;100509.59;;;20.84;67.96
70468;BME280;57934;51.532;7.684;2023-05-07T10:00:51;100505.22;;;20.72;68.46
70468;BME280;57934;51.532;7.684;2023-05-07T10:03:19;100502.53;;;21.42;66.24
70468;BME280;57934;51.532;7.684;2023-05-07T10:05:58;100494.31;;;22.52;62.86
70468;BME280;57934;51.532;7.684;2023-05-07T10:08:25;100502.44;;;22.93;61.79
70468;BME280;57934;51.532;7.684;2023-05-07T10:10:54;100499.28;;;24.36;58.73
70468;BME280;57934;51.532;7.684;2023-05-07T10:13:24;100503.22;;;24.04;57.32
70468;BME280;57934;51.532;7.684;2023-05-07T10:15:54;100504.56;;;24.51;55.57
70468;BME280;57934;51.532;7.684;2023-05-07T10:18:22;100501.50;;;24.24;56.07
70468;BME280;57934;51.532;7.684;2023-05-07T10:21:08;100505.38;;;24.52;56.34
70468;BME280;57934;51.532;7.684;2023-05-07T10:23:38;100504.84;;;25.18;54.39
70468;BME280;57934;51.532;7.684;2023-05-07T10:26:06;100507.72;;;24.64;55.18
70468;BME280;57934;51.532;7.684;2023-05-07T10:28:38;100505.97;;;23.94;56.17
70468;BME280;57934;51.532;7.684;2023-05-07T10:31:41;100494.94;;;24.40;56.06
70468;BME280;57934;51.532;7.684;2023-05-07T10:34:14;100496.25;;;23.93;57.18
70468;BME280;57934;51.532;7.684;2023-05-07T10:36:41;100494.28;;;24.59;56.58
70468;BME280;57934;51.532;7.684;2023-05-07T10:39:09;100499.06;;;23.57;57.64
70468;BME280;57934;51.532;7.684;2023-05-07T10:41:36;100495.41;;;22.61;60.57
70468;BME280;57934;51.532;7.684;2023-05-07T10:44:03;100498.66;;;22.79;59.52
70468;BME280;57934;51.532;7.684;2023-05-07T10:46:32;100496.31;;;21.94;60.96
70468;BME280;57934;51.532;7.684;2023-05-07T10:49:10;100495.78;;;21.92;62.59
70468;BME280;57934;51.532;7.684;2023-05-07T10:52:17;100502.53;;;22.10;62.96
70468;BME280;57934;51.532;7.684;2023-05-07T10:57:46;100495.63;;;22.19;62.81
70468;BME280;57934;51.532;7.684;2023-05-07T11:05:31;100504.66;;;22.03;63.01
70468;BME280;57934;51.532;7.684;2023-05-07T11:08:20;100500.38;;;21.39;64.48
70468;BME280;57934;51.532;7.684;2023-05-07T11:11:04;100494.81;;;22.19;62.23
70468;BME280;57934;51.532;7.684;2023-05-07T11:13:43;100496.84;;;21.91;61.37
70468;BME280;57934;51.532;7.684;2023-05-07T11:16:24;100498.88;;;21.68;63.44
70468;BME280;57934;51.532;7.684;2023-05-07T11:18:59;100488.69;;;22.64;60.97
70468;BME280;57934;51.532;7.684;2023-05-07T11:21:38;100493.56;;;21.79;62.78
70468;BME280;57934;51.532;7.684;2023-05-07T11:24:12;100490.56;;;22.74;61.46
70468;BME280;57934;51.532;7.684;2023-05-07T11:26:53;100491.66;;;22.68;60.72
70468;BME280;57934;51.532;7.684;2023-05-07T11:29:21;100493.53;;;23.13;60.29
70468;BME280;57934;51.532;7.684;2023-05-07T11:31:50;100486.25;;;22.37;59.73
70468;BME280;57934;51.532;7.684;2023-05-07T11:34:22;100485.97;;;22.33;60.36
70468;BME280;57934;51.532;7.684;2023-05-07T11:36:49;100479.56;;;21.66;63.02
70468;BME280;57934;51.532;7.684;2023-05-07T11:39:28;100483.25;;;21.50;63.83
70468;BME280;57934;51.532;7.684;2023-05-07T11:41:54;100480.41;;;20.55;65.88
70468;BME280;57934;51.532;7.684;2023-05-07T11:44:20;100483.59;;;20.52;66.64
70468;BME280;57934;51.532;7.684;2023-05-07T11:46:46;100478.16;;;20.74;66.14
70468;BME280;57934;51.532;7.684;2023-05-07T11:49:12;100480.25;;;20.99;65.98
70468;BME280;57934;51.532;7.684;2023-05-07T11:51:38;100479.66;;;20.97;65.90
70468;BME280;57934;51.532;7.684;2023-05-07T11:54:04;100488.31;;;21.47;64.88
70468;BME280;57934;51.532;7.684;2023-05-07T11:56:35;100483.88;;;21.73;63.80
70468;BME280;57934;51.532;7.684;2023-05-07T11:59:01;100491.28;;;21.50;64.41
70468;BME280;57934;51.532;7.684;2023-05-07T12:01:27;100500.56;;;20.95;64.74
70468;BME280;57934;51.532;7.684;2023-05-07T12:03:53;100494.31;;;20.84;65.38
70468;BME280;57934;51.532;7.684;2023-05-07T12:06:19;100499.44;;;20.54;65.91
70468;BME280;57934;51.532;7.684;2023-05-07T12:08:46;100502.38;;;20.30;66.62
70468;BME280;57934;51.532;7.684;2023-05-07T12:11:16;100498.50;;;20.43;65.58
70468;BME280;57934;51.532;7.684;2023-05-07T12:13:47;100504.38;;;20.99;64.19
70468;BME280;57934;51.532;7.684;2023-05-07T12:16:14;100503.59;;;20.71;64.06
70468;BME280;57934;51.532;7.684;2023-05-07T12:18:40;100508.94;;;21.04;62.33
70468;BME280;57934;51.532;7.684;2023-05-07T12:21:07;100500.66;;;21.48;62.52
70468;BME280;57934;51.532;7.684;2023-05-07T12:23:35;100498.56;;;21.55;61.82
70468;BME280;57934;51.532;7.684;2023-05-07T12:26:02;100496.31;;;21.94;62.15
70468;BME280;57934;51.532;7.684;2023-05-07T12:28:31;100495.72;;;21.77;60.20
70468;BME280;57934;51.532;7.684;2023-05-07T12:31:01;100500.53;;;21.70;59.68
70468;BME280;57934;51.532;7.684;2023-05-07T12:33:27;100495.19;;;21.80;60.30
70468;BME280;57934;51.532;7.684;2023-05-07T12:35:55;100497.22;;;22.20;59.39
70468;BME280;57934;51.532;7.684;2023-05-07T12:38:22;100500.50;;;22.48;58.53
70468;BME280;57934;51.532;7.684;2023-05-07T12:40:53;100490.56;;;22.63;57.27
70468;BME280;57934;51.532;7.684;2023-05-07T12:43:27;100497.91;;;21.90;58.08
70468;BME280;57934;51.532;7.684;2023-05-07T12:45:55;100493.44;;;21.48;61.13
70468;BME280;57934;51.532;7.684;2023-05-07T12:48:22;100494.25;;;21.54;61.53
70468;BME280;57934;51.532;7.684;2023-05-07T12:50:52;100497.47;;;21.51;62.09
70468;BME280;57934;51.532;7.684;2023-05-07T12:53:21;100496.41;;;22.14;61.79
70468;BME280;57934;51.532;7.684;2023-05-07T12:55:49;100500.72;;;22.21;61.16
70468;BME280;57934;51.532;7.684;2023-05-07T12:58:20;100506.78;;;21.90;61.24